Time;durP1;ratioP1;P1;durP2;ratioP2;P2;SDS_P1;SDS_P2;PMS_P1;PMS_P2;Temp;Humidity;BMP_temperature;BMP_pressure;BME280_temperature;BME280_humidity;BME280_pressure;Samples;Min_cycle;Max_cycle;Signal;HPM_P1;HPM_P2
2022/12/22 04:01:31;;;;;;;1.00;0.80;;;9.50;48.40;;;;;;5454926;23;45321;-59
2022/12/22 04:03:56;;;;;;;1.02;0.93;;;9.50;48.40;;;;;;4948889;28;45594;-61
2022/12/22 04:06:22;;;;;;;1.48;1.13;;;9.50;48.30;;;;;;4933423;28;45877;-52
2022/12/22 04:08:47;;;;;;;1.48;1.27;;;9.50;48.40;;;;;;4953135;28;44883;-59
2022/12/22 04:13:58;;;;;;;0.93;0.82;;;9.40;48.50;;;;;;4973076;28;44887;-59
2022/12/22 04:16:23;;;;;;;1.50;1.13;;;9.50;48.50;;;;;;4969207;28;47001;-58
2022/12/22 04:18:49;;;;;;;1.20;1.10;;;9.50;48.40;;;;;;4958368;28;44930;-52
2022/12/22 04:21:14;;;;;;;1.02;0.90;;;9.50;48.40;;;;;;4974176;28;44658;-57
2022/12/22 04:23:40;;;;;;;1.33;1.13;;;9.50;48.50;;;;;;4974355;28;45329;-53
2022/12/22 04:26:06;;;;;;;1.40;1.25;;;9.50;48.40;;;;;;4952687;28;46387;-62
2022/12/22 04:28:31;;;;;;;4.32;1.35;;;9.50;48.40;;;;;;4971774;28;46416;-62
2022/12/22 04:30:57;;;;;;;2.08;1.30;;;9.50;48.50;;;;;;4955125;28;45592;-57
2022/12/22 04:33:22;;;;;;;1.20;1.10;;;9.50;48.50;;;;;;4973912;28;46330;-57
2022/12/22 04:35:48;;;;;;;1.42;1.20;;;9.50;48.40;;;;;;4952949;28;46318;-59
2022/12/22 04:38:13;;;;;;;1.00;0.90;;;9.50;48.40;;;;;;4973774;28;45550;-60
2022/12/22 04:40:39;;;;;;;1.08;0.98;;;9.50;48.40;;;;;;4949953;28;45402;-59
2022/12/22 04:43:05;;;;;;;1.40;1.05;;;9.50;48.40;;;;;;4971163;28;45230;-59
2022/12/22 04:45:30;;;;;;;1.42;1.10;;;9.50;48.30;;;;;;4971954;28;45852;-59
2022/12/22 04:47:56;;;;;;;1.38;1.13;;;9.50;48.30;;;;;;4968230;28;45327;-60
2022/12/22 04:50:21;;;;;;;1.48;1.10;;;9.50;48.40;;;;;;4970100;28;45353;-59
2022/12/22 04:52:47;;;;;;;0.88;0.82;;;9.50;48.40;;;;;;4965980;28;45609;-61
2022/12/22 04:55:12;;;;;;;1.23;1.05;;;9.50;48.30;;;;;;4973197;28;45973;-60
2022/12/22 04:57:38;;;;;;;1.00;0.90;;;9.60;48.40;;;;;;4974950;28;45255;-53
2022/12/22 05:00:04;;;;;;;1.23;1.10;;;9.60;48.40;;;;;;4975125;28;45443;-66
2022/12/22 05:02:30;;;;;;;1.25;1.10;;;9.50;48.30;;;;;;4971891;28;45532;-58
2022/12/22 05:04:55;;;;;;;1.13;1.02;;;9.60;48.40;;;;;;4979682;28;45965;-55
2022/12/22 05:07:20;;;;;;;0.85;0.82;;;9.50;48.50;;;;;;4975633;28;45383;-58
2022/12/22 05:09:46;;;;;;;1.88;1.20;;;9.60;48.40;;;;;;4971650;28;45428;-59
2022/12/22 05:14:56;;;;;;;1.30;1.00;;;9.60;48.40;;;;;;4977455;28;45999;-59
2022/12/22 05:17:21;;;;;;;1.27;1.17;;;9.60;48.40;;;;;;4974470;28;45350;-59
2022/12/22 05:19:47;;;;;;;1.13;0.95;;;9.60;48.40;;;;;;4970435;28;45534;-59
2022/12/22 05:22:12;;;;;;;1.40;1.23;;;9.60;48.40;;;;;;4958013;28;45569;-59
2022/12/22 05:24:38;;;;;;;1.45;1.10;;;9.60;48.40;;;;;;4982051;28;46268;-57
2022/12/22 05:27:03;;;;;;;1.00;0.90;;;9.60;48.40;;;;;;4972881;28;45175;-59
2022/12/22 05:29:29;;;;;;;1.33;1.02;;;9.60;48.40;;;;;;4981115;28;45453;-52
2022/12/22 05:31:54;;;;;;;1.60;1.15;;;9.60;48.40;;;;;;4966860;28;45593;-62
2022/12/22 05:34:20;;;;;;;0.85;0.82;;;9.60;48.40;;;;;;4975524;28;46163;-52
2022/12/22 05:36:45;;;;;;;1.10;0.95;;;9.60;48.40;;;;;;4981963;28;45358;-59
2022/12/22 05:39:11;;;;;;;1.10;1.00;;;9.60;48.40;;;;;;4970604;28;46591;-62
2022/12/22 05:41:36;;;;;;;1.45;1.13;;;9.60;48.30;;;;;;4957607;28;45448;-61
2022/12/22 05:44:02;;;;;;;1.20;1.10;;;9.60;48.50;;;;;;4974962;28;46135;-57
2022/12/22 05:46:27;;;;;;;0.80;0.80;;;9.60;48.50;;;;;;4972739;28;45241;-57
2022/12/22 05:48:53;;;;;;;1.25;0.90;;;9.60;48.50;;;;;;4976967;28;45072;-58
2022/12/22 05:51:18;;;;;;;1.05;0.90;;;9.60;48.40;;;;;;4974176;28;45348;-56
2022/12/22 05:53:44;;;;;;;1.90;1.20;;;9.60;48.50;;;;;;4959143;28;45403;-57
2022/12/22 05:56:09;;;;;;;1.20;1.10;;;9.60;48.40;;;;;;4979462;28;45187;-62
2022/12/22 05:58:37;;;;;;;0.85;0.85;;;9.60;48.50;;;;;;4977926;28;45131;-54
2022/12/22 06:01:02;;;;;;;0.68;0.68;;;9.60;48.40;;;;;;4955373;28;44987;-59
2022/12/22 06:03:28;;;;;;;1.30;1.00;;;9.60;48.40;;;;;;4971012;28;46885;-60
2022/12/22 06:05:54;;;;;;;1.73;1.10;;;9.60;48.40;;;;;;4971669;28;45576;-53
2022/12/22 06:08:19;;;;;;;1.02;0.90;;;9.60;48.40;;;;;;4976557;28;44649;-60
2022/12/22 06:10:45;;;;;;;1.30;1.10;;;9.60;48.50;;;;;;4973200;28;44943;-62
2022/12/22 06:13:10;;;;;;;1.20;1.10;;;9.60;48.40;;;;;;4974000;28;45937;-60
2022/12/22 06:15:36;;;;;;;1.20;0.88;;;9.60;48.40;;;;;;4976544;28;45113;-59
2022/12/22 06:18:01;;;;;;;1.10;0.90;;;9.60;48.40;;;;;;4979418;28;45328;-63
2022/12/22 06:20:27;;;;;;;1.10;0.88;;;9.60;48.50;;;;;;4978879;28;45445;-60
2022/12/22 06:22:52;;;;;;;1.30;1.13;;;9.60;48.50;;;;;;4971919;28;45801;-59
2022/12/22 06:25:18;;;;;;;0.98;0.82;;;9.60;48.50;;;;;;4976874;28;45143;-51
2022/12/22 06:27:43;;;;;;;1.10;1.00;;;9.60;48.40;;;;;;4984618;28;45254;-56
2022/12/22 06:30:09;;;;;;;1.15;0.95;;;9.60;48.40;;;;;;4973367;28;45219;-63
2022/12/22 06:32:36;;;;;;;1.38;1.13;;;9.70;48.40;;;;;;4973655;28;46323;-55
2022/12/22 06:35:02;;;;;;;0.93;0.77;;;9.60;48.40;;;;;;4973091;28;45258;-58
2022/12/22 06:37:27;;;;;;;1.90;1.20;;;9.60;48.50;;;;;;4978372;28;45008;-59
2022/12/22 06:39:53;;;;;;;1.23;0.82;;;9.60;48.50;;;;;;4959040;28;45315;-58
2022/12/22 06:45:03;;;;;;;0.70;0.70;;;9.60;48.50;;;;;;4971639;28;44668;-59
2022/12/22 06:47:28;;;;;;;0.80;0.80;;;9.60;48.50;;;;;;4973689;28;45461;-61
2022/12/22 06:49:54;;;;;;;1.10;1.00;;;9.60;48.40;;;;;;4974925;28;44954;-58
2022/12/22 06:52:19;;;;;;;1.40;1.10;;;9.70;48.40;;;;;;4969803;28;47112;-55
2022/12/22 06:54:45;;;;;;;0.75;0.75;;;9.70;48.40;;;;;;4970018;28;45431;-63
2022/12/22 06:57:10;;;;;;;1.10;1.00;;;9.70;48.50;;;;;;4975244;28;44942;-65
2022/12/22 06:59:36;;;;;;;1.10;1.00;;;9.70;48.50;;;;;;4981913;28;45546;-60
2022/12/22 07:02:01;;;;;;;0.80;0.80;;;9.70;48.50;;;;;;4949224;28;46166;-59
2022/12/22 07:04:28;;;;;;;1.20;0.98;;;9.70;48.50;;;;;;4953137;28;45449;-59
2022/12/22 07:06:54;;;;;;;1.75;1.05;;;9.70;48.50;;;;;;4954509;28;45142;-64
2022/12/22 07:09:19;;;;;;;1.73;0.95;;;9.70;48.50;;;;;;4959451;28;45465;-53
2022/12/22 07:11:45;;;;;;;0.98;0.88;;;9.60;48.50;;;;;;4947714;28;46093;-62
2022/12/22 07:14:10;;;;;;;1.15;0.90;;;9.70;48.60;;;;;;4959845;28;45314;-56
2022/12/22 07:16:36;;;;;;;1.00;0.90;;;9.70;48.50;;;;;;4955522;28;45211;-59
2022/12/22 07:19:01;;;;;;;1.35;1.00;;;9.70;48.60;;;;;;4953519;28;45291;-60
2022/12/22 07:21:27;;;;;;;1.42;1.13;;;9.70;48.60;;;;;;4949876;28;47139;-62
2022/12/22 07:23:53;;;;;;;1.10;1.00;;;9.70;48.60;;;;;;4947950;28;45470;-53
2022/12/22 07:26:18;;;;;;;1.67;1.10;;;9.70;48.70;;;;;;4952943;28;45146;-60
2022/12/22 07:28:44;;;;;;;1.00;0.90;;;9.70;48.70;;;;;;4952667;28;45519;-59
2022/12/22 07:31:10;;;;;;;0.80;0.80;;;9.70;48.70;;;;;;4951531;28;46929;-61
2022/12/22 07:33:35;;;;;;;1.10;1.00;;;9.70;48.70;;;;;;4956278;28;44928;-62
2022/12/22 07:36:15;;;;;;;1.35;1.13;;;9.70;48.60;;;;;;4937355;28;45969;-58
2022/12/22 07:38:42;;;;;;;1.25;1.15;;;9.70;48.60;;;;;;4935150;28;45262;-59
2022/12/22 07:42:43;;;;;;;1.13;0.93;;;9.70;48.70;;;;;;4953314;28;46224;-59
2022/12/22 07:43:55;;;;;;;1.77;1.10;;;9.70;48.70;;;;;;4949272;28;45847;-61
2022/12/22 07:46:21;;;;;;;1.00;0.90;;;9.70;48.70;;;;;;4960029;28;45529;-58
2022/12/22 07:51:32;;;;;;;1.00;0.90;;;9.70;48.70;;;;;;4946298;28;45599;-60
2022/12/22 07:53:58;;;;;;;1.10;1.00;;;9.70;48.70;;;;;;4953214;28;44679;-57
2022/12/22 07:56:23;;;;;;;1.20;0.98;;;9.70;48.70;;;;;;4949835;28;45183;-64
2022/12/22 07:58:49;;;;;;;1.27;1.17;;;9.70;48.70;;;;;;4953260;28;45473;-58
2022/12/22 08:01:14;;;;;;;0.93;0.88;;;9.70;48.70;;;;;;4959020;28;45829;-62
2022/12/22 08:03:40;;;;;;;1.27;1.10;;;9.70;49.10;;;;;;4973199;28;45266;-53
2022/12/22 08:06:06;;;;;;;1.15;0.90;;;9.70;48.70;;;;;;4969555;28;45152;-66
2022/12/22 08:08:32;;;;;;;0.85;0.70;;;9.70;48.80;;;;;;4975259;28;45638;-61
2022/12/22 08:11:01;;;;;;;0.95;0.90;;;9.70;48.70;;;;;;4976033;28;46939;-74
2022/12/22 08:13:27;;;;;;;1.00;0.90;;;9.70;48.80;;;;;;4958637;28;45157;-56
2022/12/22 08:15:52;;;;;;;1.00;0.90;;;9.70;48.70;;;;;;4971150;28;44891;-60
2022/12/22 08:18:18;;;;;;;0.98;0.82;;;9.70;48.70;;;;;;4972192;28;45297;-57
2022/12/22 08:20:50;;;;;;;0.80;0.80;;;9.70;48.70;;;;;;4970196;28;45764;-60
2022/12/22 08:23:15;;;;;;;1.00;0.90;;;9.70;48.70;;;;;;4973388;28;45030;-61
2022/12/22 08:25:41;;;;;;;1.00;0.90;;;9.80;48.70;;;;;;4965799;28;45312;-57
2022/12/22 08:28:06;;;;;;;1.13;0.90;;;9.80;48.70;;;;;;4977834;28;46462;-60
2022/12/22 08:30:32;;;;;;;0.70;0.60;;;9.80;48.60;;;;;;4924050;28;46307;-57
2022/12/22 08:32:58;;;;;;;0.95;0.80;;;9.80;48.70;;;;;;4974662;28;45324;-61
2022/12/22 08:35:23;;;;;;;1.23;0.90;;;9.80;48.70;;;;;;4954778;28;45417;-64
2022/12/22 08:37:49;;;;;;;1.48;1.05;;;9.80;48.70;;;;;;4976022;28;44997;-56
2022/12/22 08:40:21;;;;;;;1.10;0.73;;;9.80;48.70;;;;;;4974343;28;46176;-63
2022/12/22 08:42:47;;;;;;;1.17;1.00;;;9.80;48.80;;;;;;4954522;28;45409;-60
2022/12/22 08:45:12;;;;;;;1.23;0.93;;;9.80;48.80;;;;;;4959575;28;45433;-59
2022/12/22 08:47:38;;;;;;;1.40;0.82;;;9.80;48.70;;;;;;4957418;28;45009;-59
2022/12/22 08:50:04;;;;;;;0.82;0.82;;;9.80;48.80;;;;;;4974221;28;46156;-59
2022/12/22 08:52:30;;;;;;;1.10;1.00;;;9.80;48.80;;;;;;4955225;28;45144;-62
2022/12/22 08:54:55;;;;;;;1.02;0.75;;;9.80;48.80;;;;;;4975852;28;44703;-62
2022/12/22 08:57:21;;;;;;;1.10;0.85;;;9.80;48.80;;;;;;4971011;28;44979;-59
2022/12/22 08:59:47;;;;;;;1.38;1.08;;;9.80;48.70;;;;;;4977016;28;45876;-61
2022/12/22 09:02:12;;;;;;;0.70;0.70;;;9.80;48.70;;;;;;4971963;28;45433;-65
2022/12/22 09:04:38;;;;;;;0.93;0.88;;;9.80;48.70;;;;;;4976301;28;45566;-63
2022/12/22 09:07:03;;;;;;;1.33;1.00;;;9.80;48.70;;;;;;4958214;28;45739;-63
2022/12/22 09:09:33;;;;;;;1.17;0.90;;;9.90;48.80;;;;;;4972466;28;46011;-57
2022/12/22 09:11:59;;;;;;;1.00;0.90;;;9.90;48.70;;;;;;4972345;28;45266;-61
2022/12/22 09:14:24;;;;;;;1.02;0.80;;;9.90;48.80;;;;;;4974778;28;45683;-63
2022/12/22 09:16:50;;;;;;;0.80;0.80;;;9.80;48.70;;;;;;4972975;28;45261;-61
2022/12/22 09:19:16;;;;;;;1.33;0.90;;;9.90;48.80;;;;;;4973289;28;45682;-61
2022/12/22 09:21:41;;;;;;;1.52;0.90;;;9.90;48.70;;;;;;4969314;28;45423;-63
2022/12/22 09:24:07;;;;;;;1.60;1.00;;;9.90;48.80;;;;;;4976658;28;45409;-59
2022/12/22 09:26:33;;;;;;;0.95;0.80;;;9.90;48.70;;;;;;4972881;28;45176;-58
2022/12/22 09:28:58;;;;;;;0.80;0.70;;;9.90;48.60;;;;;;4973631;28;45946;-62
2022/12/22 09:31:24;;;;;;;1.27;0.80;;;9.90;48.70;;;;;;4970588;28;45038;-59
2022/12/22 09:33:50;;;;;;;1.17;1.00;;;10.00;48.60;;;;;;4974335;28;45498;-58
2022/12/22 09:36:18;;;;;;;1.23;0.90;;;9.90;48.50;;;;;;4969697;28;45219;-61
2022/12/22 09:38:43;;;;;;;0.88;0.80;;;10.00;48.60;;;;;;4974094;28;46599;-55
2022/12/22 09:41:17;;;;;;;1.00;0.90;;;10.00;48.60;;;;;;4966655;28;45246;-65
2022/12/22 09:43:42;;;;;;;0.75;0.68;;;10.00;48.60;;;;;;4971758;28;45235;-59
2022/12/22 09:46:20;;;;;;;0.85;0.75;;;10.00;48.50;;;;;;4958536;28;45715;-59
2022/12/22 09:48:46;;;;;;;1.20;0.85;;;10.00;48.50;;;;;;4957230;28;45898;-58
2022/12/22 09:51:11;;;;;;;1.05;0.73;;;10.00;48.50;;;;;;4970653;28;45423;-63
2022/12/22 09:53:37;;;;;;;1.10;0.90;;;10.00;48.50;;;;;;4955947;28;45313;-60
2022/12/22 09:56:03;;;;;;;1.08;0.98;;;10.00;48.50;;;;;;4938980;28;45727;-61
2022/12/22 09:58:30;;;;;;;0.95;0.77;;;10.00;48.50;;;;;;4957444;28;46230;-64
2022/12/22 10:01:23;;;;;;;0.85;0.80;;;10.00;48.50;;;;;;4953937;28;45508;-59
2022/12/22 10:04:20;;;;;;;0.88;0.70;;;10.00;48.50;;;;;;4972662;28;45258;-57
2022/12/22 10:07:05;;;;;;;2.22;0.93;;;10.10;48.50;;;;;;4966236;28;45425;-61
2022/12/22 10:09:31;;;;;;;1.00;0.80;;;10.00;48.40;;;;;;4938311;28;45457;-59
2022/12/22 10:12:02;;;;;;;0.85;0.73;;;10.00;48.50;;;;;;4954965;28;45610;-63
2022/12/22 10:14:40;;;;;;;0.80;0.80;;;10.00;48.50;;;;;;4972577;28;45809;-56
2022/12/22 10:17:15;;;;;;;0.73;0.70;;;10.00;48.50;;;;;;4958180;28;45319;-64
2022/12/22 10:19:41;;;;;;;1.25;0.82;;;10.00;48.50;;;;;;4972095;28;46144;-61
2022/12/22 10:22:32;;;;;;;0.70;0.70;;;10.10;48.50;;;;;;4969758;28;45458;-62
2022/12/22 10:25:02;;;;;;;0.75;0.73;;;10.10;48.50;;;;;;4961065;28;44991;-58
2022/12/22 10:27:32;;;;;;;0.70;0.70;;;10.10;48.50;;;;;;4966178;28;45400;-56
2022/12/22 10:30:17;;;;;;;1.60;0.90;;;10.10;48.50;;;;;;4968039;28;45286;-62
2022/12/22 10:32:42;;;;;;;0.70;0.70;;;10.10;48.50;;;;;;4969464;28;45243;-63
2022/12/22 10:35:08;;;;;;;1.35;0.90;;;10.10;48.50;;;;;;4962793;28;45258;-63
2022/12/22 10:37:37;;;;;;;1.45;0.88;;;10.10;48.50;;;;;;4980412;28;45004;-56
2022/12/22 10:40:19;;;;;;;0.77;0.75;;;10.10;48.50;;;;;;4972767;28;45883;-57
2022/12/22 10:42:53;;;;;;;0.95;0.70;;;10.10;48.60;;;;;;4936333;28;45422;-58
2022/12/22 10:45:19;;;;;;;;;;;10.10;48.50;;;;;;4956726;28;45647;-58
2022/12/22 10:47:49;;;;;;;0.98;0.77;;;10.10;48.70;;;;;;4969811;28;45008;-56
2022/12/22 10:50:15;;;;;;;0.70;0.70;;;10.10;48.50;;;;;;4942190;28;47263;-56
2022/12/22 10:52:41;;;;;;;0.75;0.70;;;10.10;48.50;;;;;;4963140;28;45277;-58
2022/12/22 10:55:16;;;;;;;1.17;0.90;;;10.10;48.60;;;;;;4951874;28;45291;-63
2022/12/22 10:57:42;;;;;;;0.60;0.60;;;10.20;48.60;;;;;;4972895;28;45444;-57
2022/12/22 11:00:25;;;;;;;0.70;0.70;;;10.20;48.50;;;;;;4973130;28;47127;-58
2022/12/22 11:02:51;;;;;;;;;;;10.20;48.60;;;;;;4969799;28;44698;-56
2022/12/22 11:05:17;;;;;;;0.73;0.70;;;10.10;48.70;;;;;;4971603;28;45736;-63
2022/12/22 11:07:43;;;;;;;0.90;0.68;;;10.10;48.60;;;;;;4974982;28;45259;-57
2022/12/22 11:10:22;;;;;;;1.48;0.98;;;10.10;48.60;;;;;;4973312;28;47126;-65
2022/12/22 11:12:51;;;;;;;0.70;0.70;;;10.10;48.60;;;;;;4968391;28;44946;-56
2022/12/22 11:15:33;;;;;;;1.55;1.10;;;10.20;48.70;;;;;;4969529;28;45053;-66
2022/12/22 11:18:27;;;;;;;0.80;0.75;;;10.20;48.60;;;;;;4964519;28;45365;-59
2022/12/22 11:21:27;;;;;;;0.90;0.70;;;10.20;48.70;;;;;;4971778;28;46245;-59
2022/12/22 11:23:59;;;;;;;0.88;0.80;;;10.20;48.60;;;;;;4938983;28;45436;-58
2022/12/22 11:26:41;;;;;;;0.63;0.60;;;10.20;48.70;;;;;;4971117;28;45986;-57
2022/12/22 11:29:32;;;;;;;0.77;0.68;;;10.20;48.70;;;;;;4955597;28;45762;-63
2022/12/22 11:32:16;;;;;;;0.80;0.60;;;10.20;48.70;;;;;;4970516;28;45570;-55
2022/12/22 11:34:54;;;;;;;1.08;0.80;;;10.20;48.70;;;;;;4974682;28;45615;-55
2022/12/22 11:37:41;;;;;;;0.68;0.68;;;10.20;48.60;;;;;;4972613;28;45321;-60
2022/12/22 11:40:19;;;;;;;1.10;0.73;;;10.20;48.70;;;;;;4969455;28;45453;-62
2022/12/22 11:43:03;;;;;;;0.65;0.65;;;10.20;48.70;;;;;;4976324;28;46067;-59
2022/12/22 11:45:38;;;;;;;0.70;0.52;;;10.20;48.70;;;;;;4969230;28;45283;-60
2022/12/22 11:48:25;;;;;;;0.90;0.55;;;10.20;48.70;;;;;;4970214;28;44914;-62
2022/12/22 11:51:04;;;;;;;0.80;0.80;;;10.20;48.80;;;;;;4970374;28;44946;-62
2022/12/22 11:53:56;;;;;;;0.60;0.60;;;10.20;48.80;;;;;;4942506;28;46187;-67
2022/12/22 11:56:39;;;;;;;0.45;0.45;;;10.20;48.80;;;;;;4954867;28;45391;-57
2022/12/22 11:59:19;;;;;;;0.88;0.80;;;10.20;48.80;;;;;;4970385;28;44958;-51
2022/12/22 12:02:03;;;;;;;0.70;0.70;;;10.20;48.70;;;;;;4967456;28;47274;-55
2022/12/22 12:04:51;;;;;;;0.70;0.52;;;10.30;48.80;;;;;;4952239;28;46083;-59
2022/12/22 12:07:38;;;;;;;0.52;0.52;;;10.20;48.80;;;;;;4971007;28;45456;-59
2022/12/22 12:10:12;;;;;;;0.70;0.70;;;10.30;48.90;;;;;;4945221;28;45198;-58
2022/12/22 12:12:50;;;;;;;1.00;0.70;;;10.20;48.80;;;;;;4970703;28;45217;-57
2022/12/22 12:15:33;;;;;;;0.75;0.70;;;10.30;48.80;;;;;;4973231;28;46202;-62
2022/12/22 12:18:38;;;;;;;1.00;0.50;;;10.30;48.80;;;;;;4971050;28;45539;-59
2022/12/22 12:21:24;;;;;;;0.57;0.55;;;10.30;48.90;;;;;;4962489;28;45544;-58
2022/12/22 12:24:15;;;;;;;0.52;0.50;;;10.30;48.90;;;;;;4953526;28;45081;-59
2022/12/22 12:27:03;;;;;;;1.17;0.65;;;10.30;48.90;;;;;;4971098;28;46135;-56
2022/12/22 12:29:39;;;;;;;1.10;1.00;;;10.30;48.90;;;;;;4961684;28;44950;-59
2022/12/22 12:32:08;;;;;;;0.82;0.60;;;10.30;48.90;;;;;;4949565;28;44785;-58
2022/12/22 12:34:36;;;;;;;0.52;0.52;;;10.30;48.90;;;;;;4959888;28;44959;-58
2022/12/22 12:37:14;;;;;;;0.68;0.57;;;10.30;48.90;;;;;;4935588;28;45986;-59
2022/12/22 12:39:59;;;;;;;0.73;0.60;;;10.30;48.90;;;;;;4962467;28;45534;-59
2022/12/22 12:42:29;;;;;;;0.63;0.63;;;10.30;48.90;;;;;;4951652;28;45655;-57
2022/12/22 12:44:55;;;;;;;0.70;0.70;;;10.30;48.90;;;;;;4955162;28;45071;-59
2022/12/22 12:47:26;;;;;;;0.82;0.60;;;10.30;48.90;;;;;;4965726;28;46074;-59
2022/12/22 12:49:57;;;;;;;0.80;0.80;;;10.30;48.90;;;;;;4972579;28;45454;-62
2022/12/22 12:52:37;;;;;;;0.50;0.50;;;10.30;48.90;;;;;;4969731;28;46316;-62
2022/12/22 12:55:21;;;;;;;0.88;0.60;;;10.40;49.00;;;;;;4975880;28;45011;-56
2022/12/22 12:57:47;;;;;;;1.08;0.63;;;10.30;48.90;;;;;;4968298;28;47166;-54
2022/12/22 13:00:36;;;;;;;0.50;0.50;;;10.30;49.50;;;;;;4971036;28;45316;-64
2022/12/22 13:03:02;;;;;;;0.90;0.70;;;10.40;49.00;;;;;;4961010;28;45416;-66
2022/12/22 13:05:50;;;;;;;0.70;0.60;;;10.40;48.90;;;;;;4968758;28;45198;-57
2022/12/22 13:08:29;;;;;;;0.98;0.85;;;10.40;49.00;;;;;;4968387;28;46172;-62
2022/12/22 13:10:54;;;;;;;0.73;0.70;;;10.40;49.00;;;;;;4969335;28;45476;-59
2022/12/22 13:13:25;;;;;;;0.80;0.60;;;10.40;49.00;;;;;;4969842;28;45461;-57
2022/12/22 13:16:00;;;;;;;0.60;0.60;;;10.40;49.00;;;;;;4965488;28;45661;-59
2022/12/22 13:18:27;;;;;;;1.02;0.80;;;10.40;49.00;;;;;;4980736;28;46353;-63
2022/12/22 13:21:04;;;;;;;0.80;0.60;;;10.40;49.00;;;;;;4972347;28;45735;-56
2022/12/22 13:23:35;;;;;;;0.70;0.70;;;10.40;49.00;;;;;;4978168;28;45609;-56
2022/12/22 13:26:12;;;;;;;0.65;0.65;;;10.40;49.10;;;;;;4943321;28;44658;-60
2022/12/22 13:28:44;;;;;;;0.63;0.57;;;10.40;49.10;;;;;;4946166;28;46227;-53
2022/12/22 13:31:17;;;;;;;0.65;0.60;;;10.40;49.10;;;;;;4971548;28;45200;-59
2022/12/22 13:33:43;;;;;;;0.60;0.57;;;10.40;49.10;;;;;;4976295;28;45245;-61
2022/12/22 13:36:18;;;;;;;2.20;0.88;;;10.30;49.20;;;;;;4945542;28;45160;-56
2022/12/22 13:38:44;;;;;;;1.25;0.63;;;10.40;49.30;;;;;;4960292;28;46929;-58
2022/12/22 13:41:19;;;;;;;0.73;0.73;;;10.40;49.30;;;;;;4958144;28;45466;-60
2022/12/22 13:43:48;;;;;;;0.77;0.50;;;10.40;49.30;;;;;;4963141;28;45141;-62
2022/12/22 13:46:13;;;;;;;0.70;0.60;;;10.40;49.30;;;;;;4939665;28;45401;-60
2022/12/22 13:48:45;;;;;;;0.50;0.50;;;10.40;49.30;;;;;;4944396;28;46794;-65
2022/12/22 13:51:21;;;;;;;0.88;0.70;;;10.40;49.30;;;;;;4958694;28;46266;-59
2022/12/22 13:53:54;;;;;;;0.47;0.47;;;10.40;49.40;;;;;;4953669;28;45161;-62
2022/12/22 13:56:30;;;;;;;;;;;10.40;49.30;;;;;;4961534;28;45022;-52
2022/12/22 13:58:58;;;;;;;0.93;0.57;;;10.40;49.40;;;;;;4967210;28;46151;-63
2022/12/22 14:01:24;;;;;;;0.90;0.60;;;10.40;49.30;;;;;;4954783;28;45318;-54
2022/12/22 14:04:00;;;;;;;0.90;0.70;;;10.40;49.30;;;;;;4973386;28;45265;-57
2022/12/22 14:06:26;;;;;;;0.98;0.75;;;10.50;49.30;;;;;;4971459;28;45227;-65
2022/12/22 14:08:52;;;;;;;0.60;0.60;;;10.40;49.30;;;;;;4974263;28;45189;-56
2022/12/22 14:11:18;;;;;;;0.50;0.50;;;10.40;49.40;;;;;;4973425;28;45942;-63
2022/12/22 14:13:43;;;;;;;0.65;0.60;;;10.40;49.30;;;;;;4973315;28;45326;-60
2022/12/22 14:16:12;;;;;;;0.40;0.30;;;10.40;49.40;;;;;;4959068;28;45122;-60
2022/12/22 14:18:37;;;;;;;0.60;0.50;;;10.40;49.50;;;;;;4957870;28;45712;-63
2022/12/22 14:21:03;;;;;;;0.60;0.52;;;10.40;49.50;;;;;;4957664;28;45451;-57
2022/12/22 14:23:31;;;;;;;0.90;0.70;;;10.40;49.50;;;;;;4944150;28;45216;-59
2022/12/22 14:25:57;;;;;;;0.60;0.60;;;10.40;49.50;;;;;;4955891;28;46046;-62
2022/12/22 14:28:26;;;;;;;0.93;0.73;;;10.40;49.70;;;;;;4956676;28;45985;-60
2022/12/22 14:30:53;;;;;;;0.60;0.60;;;10.40;49.50;;;;;;4951606;28;45084;-58
2022/12/22 14:33:28;;;;;;;0.60;0.50;;;10.40;49.60;;;;;;4954468;28;45468;-65
2022/12/22 14:36:22;;;;;;;0.60;0.60;;;10.40;49.60;;;;;;4973718;28;44841;-57
2022/12/22 14:38:55;;;;;;;0.70;0.57;;;10.50;49.70;;;;;;4972990;28;48028;-62
2022/12/22 14:41:40;;;;;;;0.75;0.60;;;10.40;49.60;;;;;;4956332;28;46197;-64
2022/12/22 14:44:29;;;;;;;0.57;0.50;;;10.40;49.60;;;;;;4966593;28;44665;-60
2022/12/22 14:47:03;;;;;;;0.90;0.70;;;10.50;49.80;;;;;;4963169;28;45482;-56
2022/12/22 14:49:29;;;;;;;1.23;0.65;;;10.50;49.70;;;;;;4968542;28;45061;-62
2022/12/22 14:51:54;;;;;;;1.55;0.75;;;10.50;49.70;;;;;;4959844;28;45635;-56
2022/12/22 14:54:22;;;;;;;0.88;0.80;;;10.50;49.70;;;;;;4956198;28;45969;-60
2022/12/22 14:56:48;;;;;;;0.80;0.50;;;10.50;49.70;;;;;;4957467;28;45496;-58
2022/12/22 14:59:25;;;;;;;0.65;0.60;;;10.50;49.80;;;;;;4963725;28;46035;-59
2022/12/22 15:02:20;;;;;;;0.77;0.65;;;10.50;49.80;;;;;;4969430;28;46412;-57
2022/12/22 15:04:46;;;;;;;1.00;0.70;;;10.50;49.80;;;;;;4973113;28;44890;-58
2022/12/22 15:07:17;;;;;;;0.80;0.80;;;10.50;49.70;;;;;;4975444;28;44840;-62
2022/12/22 15:09:43;;;;;;;0.80;0.60;;;10.50;49.70;;;;;;4974057;28;45501;-58
2022/12/22 15:12:13;;;;;;;1.08;0.75;;;10.50;49.80;;;;;;4969456;28;45156;-57
2022/12/22 15:14:39;;;;;;;1.30;0.65;;;10.50;49.80;;;;;;4972508;28;45236;-55
2022/12/22 15:17:05;;;;;;;1.05;0.60;;;10.50;49.70;;;;;;4958386;28;45542;-58
2022/12/22 15:19:34;;;;;;;0.50;0.50;;;10.50;49.80;;;;;;4975585;28;45268;-61
2022/12/22 15:22:00;;;;;;;1.33;0.70;;;10.50;49.80;;;;;;4954515;28;45402;-55
2022/12/22 15:24:26;;;;;;;0.60;0.55;;;10.50;49.90;;;;;;4972518;28;45804;-65
2022/12/22 15:26:51;;;;;;;0.70;0.60;;;10.50;49.80;;;;;;4975636;28;45422;-60
2022/12/22 15:29:17;;;;;;;0.82;0.50;;;10.50;50.30;;;;;;4974395;28;45958;-63
2022/12/22 15:31:43;;;;;;;0.95;0.60;;;10.50;49.80;;;;;;4974307;28;45283;-60
2022/12/22 15:34:35;;;;;;;0.60;0.60;;;10.50;49.80;;;;;;4935598;28;45533;-59
2022/12/22 15:37:00;;;;;;;0.60;0.60;;;10.50;49.90;;;;;;4970067;28;45355;-60
2022/12/22 15:39:26;;;;;;;0.60;0.57;;;10.50;49.80;;;;;;4969415;28;47017;-72
2022/12/22 15:41:51;;;;;;;0.80;0.45;;;10.50;49.80;;;;;;4954451;28;44939;-63
2022/12/22 15:44:17;;;;;;;1.20;0.70;;;10.50;49.90;;;;;;4969224;28;45171;-62
2022/12/22 15:46:44;;;;;;;0.50;0.50;;;10.50;49.90;;;;;;4967911;28;45076;-61
2022/12/22 15:49:18;;;;;;;0.60;0.60;;;10.50;49.90;;;;;;4942446;28;46395;-62
2022/12/22 15:51:44;;;;;;;0.90;0.50;;;10.50;49.90;;;;;;4956362;28;45492;-59
2022/12/22 15:54:13;;;;;;;1.08;0.60;;;10.50;49.90;;;;;;4949211;28;46078;-60
2022/12/22 15:56:39;;;;;;;0.98;0.70;;;10.50;49.90;;;;;;4946041;28;45634;-56
2022/12/22 15:59:04;;;;;;;1.00;0.65;;;10.50;49.90;;;;;;4975432;28;45967;-56
2022/12/22 16:01:30;;;;;;;1.08;0.70;;;10.50;49.90;;;;;;4952184;28;45151;-58
2022/12/22 16:03:55;;;;;;;0.60;0.50;;;10.50;49.90;;;;;;4975762;28;46366;-56
2022/12/22 16:06:21;;;;;;;1.10;0.75;;;10.50;49.90;;;;;;4973881;28;44820;-68
2022/12/22 16:08:49;;;;;;;0.98;0.55;;;10.50;49.80;;;;;;4972772;28;46063;-58
2022/12/22 16:11:14;;;;;;;0.50;0.50;;;10.50;49.90;;;;;;4968629;28;44966;-56
2022/12/22 16:13:40;;;;;;;0.95;0.70;;;10.60;49.90;;;;;;4951559;28;45354;-59
2022/12/22 16:16:07;;;;;;;0.65;0.50;;;10.50;49.90;;;;;;4938378;28;45546;-60
2022/12/22 16:18:33;;;;;;;1.13;0.80;;;10.60;49.90;;;;;;4971237;28;46345;-60
2022/12/22 16:21:06;;;;;;;0.50;0.50;;;10.60;49.90;;;;;;4958298;28;45637;-61
2022/12/22 16:23:32;;;;;;;0.60;0.60;;;10.60;49.90;;;;;;4951580;28;45209;-59
2022/12/22 16:25:58;;;;;;;1.25;0.70;;;10.60;49.90;;;;;;4948050;28;45395;-59
2022/12/22 16:28:23;;;;;;;0.60;0.60;;;10.60;50.00;;;;;;4977704;28;46566;-57
2022/12/22 16:30:49;;;;;;;0.50;0.47;;;10.60;49.90;;;;;;4953569;28;45404;-59
2022/12/22 16:33:15;;;;;;;0.80;0.40;;;10.60;49.90;;;;;;4952520;28;45618;-55
2022/12/22 16:35:41;;;;;;;0.93;0.50;;;10.60;49.90;;;;;;4969169;28;45449;-61
2022/12/22 16:38:06;;;;;;;0.50;0.40;;;10.60;49.90;;;;;;4971933;28;47182;-60
2022/12/22 16:40:32;;;;;;;0.90;0.50;;;10.60;49.90;;;;;;4972592;28;45426;-57
2022/12/22 16:43:09;;;;;;;0.65;0.47;;;10.60;50.00;;;;;;4950849;28;45921;-59
2022/12/22 16:45:35;;;;;;;0.68;0.63;;;10.60;50.00;;;;;;4973046;28;45006;-56
2022/12/22 16:48:04;;;;;;;0.93;0.60;;;10.60;49.90;;;;;;4933072;28;45246;-57
2022/12/22 16:50:33;;;;;;;0.63;0.63;;;10.60;49.90;;;;;;4973376;28;45469;-60
2022/12/22 16:52:59;;;;;;;0.80;0.50;;;10.60;49.90;;;;;;4974771;28;45455;-62
2022/12/22 16:55:25;;;;;;;0.40;0.40;;;10.60;49.90;;;;;;4978173;28;45270;-65
2022/12/22 16:57:50;;;;;;;0.60;0.60;;;10.60;49.90;;;;;;4970591;28;46890;-59
2022/12/22 17:00:27;;;;;;;0.60;0.40;;;10.60;49.90;;;;;;4973835;28;45997;-62
2022/12/22 17:03:04;;;;;;;1.25;0.73;;;10.60;49.90;;;;;;4973008;28;45054;-60
2022/12/22 17:05:37;;;;;;;0.65;0.50;;;10.60;49.90;;;;;;4934957;28;45475;-59
2022/12/22 17:08:04;;;;;;;1.10;0.68;;;10.60;49.90;;;;;;4978358;28;45917;-65
2022/12/22 17:10:30;;;;;;;0.57;0.50;;;10.60;49.90;;;;;;4975251;28;45215;-62
2022/12/22 17:12:56;;;;;;;1.02;0.60;;;10.60;50.00;;;;;;4973209;28;46280;-62
2022/12/22 17:15:23;;;;;;;0.50;0.50;;;10.60;49.90;;;;;;4957810;28;45339;-54
2022/12/22 17:17:49;;;;;;;0.57;0.55;;;10.60;49.90;;;;;;4973020;28;46259;-58